createdAt,value
2022-09-02T00:01:41.060Z,21.63
2022-09-02T00:16:51.612Z,21.45
2022-09-02T00:31:53.407Z,21.13
2022-09-02T00:46:54.968Z,21.70
2022-09-02T01:01:56.767Z,20.35
2022-09-02T01:17:00.218Z,20.85
2022-09-02T01:32:02.562Z,20.80
2022-09-02T01:47:04.290Z,20.18
2022-09-02T02:02:06.239Z,20.31
2022-09-02T02:17:08.496Z,20.51
2022-09-02T02:32:10.238Z,19.67
2022-09-02T02:47:13.172Z,19.86
2022-09-02T03:02:14.787Z,19.93
2022-09-02T03:17:16.500Z,19.77
2022-09-02T03:32:18.107Z,19.67
2022-09-02T03:47:20.756Z,19.79
2022-09-02T04:02:24.581Z,19.53
2022-09-02T04:17:26.223Z,19.57
2022-09-02T04:32:27.758Z,19.39
2022-09-02T04:47:29.294Z,19.28
2022-09-02T05:02:30.857Z,19.51
2022-09-02T05:17:33.142Z,19.62
2022-09-02T05:32:37.755Z,19.56
2022-09-02T05:47:39.591Z,19.90
2022-09-02T06:02:41.992Z,20.57
2022-09-02T06:17:43.572Z,20.52
2022-09-02T06:32:45.118Z,21.02
2022-09-02T06:47:53.445Z,20.81
2022-09-02T07:03:13.757Z,20.78
2022-09-02T07:18:15.307Z,21.17
2022-09-02T07:33:16.951Z,21.85
2022-09-02T07:48:18.513Z,21.55
2022-09-02T08:03:20.266Z,22.05
2022-09-02T08:18:22.687Z,21.31
2022-09-02T08:33:24.423Z,21.36
2022-09-02T08:48:45.960Z,21.76
2022-09-02T09:04:06.371Z,22.96
2022-09-02T09:19:30.614Z,22.93
2022-09-02T09:35:10.675Z,24.05
2022-09-02T09:50:12.432Z,24.46
2022-09-02T10:05:18.658Z,23.90
2022-09-02T10:20:38.954Z,25.34
2022-09-02T10:35:47.210Z,23.99
2022-09-02T10:50:55.413Z,24.33
2022-09-02T11:06:17.967Z,26.69
2022-09-02T11:21:40.981Z,25.17
2022-09-02T11:36:43.090Z,25.00
2022-09-02T11:51:47.305Z,24.93
2022-09-02T12:07:09.674Z,26.25
2022-09-02T12:22:14.827Z,25.70
2022-09-02T12:37:53.894Z,26.06
2022-09-02T12:53:17.960Z,25.81
2022-09-02T13:08:24.957Z,24.84
2022-09-02T13:23:45.262Z,24.61
2022-09-02T13:38:47.084Z,22.68
2022-09-02T13:54:18.841Z,22.69
2022-09-02T14:09:31.052Z,21.95
2022-09-02T14:24:39.420Z,21.07
2022-09-02T14:39:54.597Z,20.83
2022-09-02T14:54:57.247Z,21.40
2022-09-02T15:09:58.933Z,21.85
2022-09-02T15:25:00.890Z,21.31
2022-09-02T15:40:02.533Z,22.42
2022-09-02T15:55:04.616Z,21.06
2022-09-02T16:10:06.357Z,20.57
2022-09-02T16:25:08.084Z,20.07
2022-09-02T16:40:09.876Z,20.36
2022-09-02T16:55:11.570Z,20.39
2022-09-02T17:10:13.077Z,20.49
2022-09-02T17:25:15.157Z,19.62
2022-09-02T17:40:35.537Z,19.87
2022-09-02T17:55:37.556Z,19.84
2022-09-02T18:11:03.004Z,19.25
2022-09-02T18:26:13.499Z,20.03
2022-09-02T18:41:31.984Z,19.20
2022-09-02T18:56:36.268Z,19.50
2022-09-02T19:11:38.718Z,18.85
2022-09-02T19:26:43.132Z,18.92
2022-09-02T19:41:45.814Z,18.30
2022-09-02T19:56:47.588Z,18.25
2022-09-02T20:11:49.433Z,18.24
2022-09-02T20:26:56.576Z,17.84
2022-09-02T20:42:07.027Z,17.41
2022-09-02T20:57:20.622Z,18.37
2022-09-02T21:12:41.292Z,18.08
2022-09-02T21:27:50.531Z,17.67
2022-09-02T21:43:15.382Z,17.61
2022-09-02T21:58:49.409Z,17.76
2022-09-02T22:16:25.773Z,17.92
2022-09-02T22:31:28.287Z,17.76
2022-09-02T22:46:51.791Z,17.34
2022-09-02T23:02:11.583Z,17.72
2022-09-02T23:17:19.384Z,18.00
2022-09-02T23:32:33.453Z,18.07
2022-09-02T23:47:44.107Z,17.90
